createdAt,value
2023-06-08T00:02:18.871Z,99742.31
2023-06-08T00:04:48.887Z,99747.47
2023-06-08T00:07:18.611Z,99747.66
2023-06-08T00:09:52.309Z,99745.44
2023-06-08T00:12:22.294Z,99743.59
2023-06-08T00:14:52.145Z,99732.69
2023-06-08T00:17:22.484Z,99735.47
2023-06-08T00:19:54.036Z,99743.16
2023-06-08T00:22:24.145Z,99737.44
2023-06-08T00:24:56.492Z,99735.00
2023-06-08T00:27:26.184Z,99739.50
2023-06-08T00:29:56.595Z,99737.16
2023-06-08T00:32:26.328Z,99747.28
2023-06-08T00:34:56.223Z,99732.91
2023-06-08T00:37:27.065Z,99741.00
2023-06-08T00:39:59.336Z,99753.66
2023-06-08T00:42:29.031Z,99742.28
2023-06-08T00:44:59.536Z,99743.97
2023-06-08T00:47:29.356Z,99733.72
2023-06-08T00:49:59.153Z,99735.50
2023-06-08T00:52:30.116Z,99738.66
2023-06-08T00:55:02.456Z,99733.53
2023-06-08T00:57:34.402Z,99737.41
2023-06-08T01:00:09.104Z,99748.59
2023-06-08T01:02:39.164Z,99749.25
2023-06-08T01:05:10.144Z,99755.81
2023-06-08T01:07:50.621Z,99742.56
2023-06-08T01:10:31.857Z,99741.28
2023-06-08T01:13:07.414Z,99737.47
2023-06-08T01:15:42.719Z,99735.63
2023-06-08T01:18:19.086Z,99730.41
2023-06-08T01:21:03.874Z,99725.91
2023-06-08T01:23:42.029Z,99730.22
2023-06-08T01:26:17.300Z,99733.41
2023-06-08T01:28:51.438Z,99720.78
2023-06-08T01:31:21.329Z,99724.50
2023-06-08T01:33:52.211Z,99727.59
2023-06-08T01:36:28.309Z,99722.22
2023-06-08T01:39:17.639Z,99723.97
2023-06-08T01:41:55.418Z,99719.16
2023-06-08T01:44:27.020Z,99734.41
2023-06-08T01:46:59.924Z,99731.69
2023-06-08T01:49:32.701Z,99727.38
2023-06-08T01:52:03.526Z,99731.91
2023-06-08T01:54:33.432Z,99727.09
2023-06-08T01:57:06.787Z,99727.78
2023-06-08T01:59:37.512Z,99731.09
2023-06-08T02:02:07.752Z,99726.78
2023-06-08T02:04:39.997Z,99737.75
2023-06-08T02:07:09.818Z,99729.63
2023-06-08T02:09:39.580Z,99726.88
2023-06-08T02:12:12.521Z,99726.59
2023-06-08T02:14:43.593Z,99716.28
2023-06-08T02:17:14.705Z,99720.38
2023-06-08T02:19:44.438Z,99738.47
2023-06-08T02:22:14.248Z,99729.09
2023-06-08T02:24:44.005Z,99736.81
2023-06-08T02:27:16.682Z,99740.09
2023-06-08T02:29:46.516Z,99737.66
2023-06-08T02:32:16.312Z,99746.66
2023-06-08T02:34:57.092Z,99742.22
2023-06-08T02:37:29.383Z,99746.09
2023-06-08T02:39:59.462Z,99734.09
2023-06-08T02:42:36.890Z,99732.72
2023-06-08T02:45:09.066Z,99725.09
2023-06-08T02:47:38.837Z,99725.94
2023-06-08T02:50:09.895Z,99729.63
2023-06-08T02:52:39.778Z,99718.34
2023-06-08T02:55:10.925Z,99732.44
2023-06-08T02:57:43.378Z,99727.72
2023-06-08T03:00:17.198Z,99738.63
2023-06-08T03:02:58.169Z,99751.75
2023-06-08T03:05:28.032Z,99740.94
2023-06-08T03:08:00.672Z,99747.19
2023-06-08T03:10:31.050Z,99766.34
2023-06-08T03:13:04.913Z,99763.94
2023-06-08T03:15:34.948Z,99761.34
2023-06-08T03:18:05.950Z,99765.28
2023-06-08T03:20:36.993Z,99777.91
2023-06-08T03:23:11.869Z,99781.00
2023-06-08T03:25:45.451Z,99789.38
2023-06-08T03:28:18.396Z,99789.22
2023-06-08T03:30:49.509Z,99791.84
2023-06-08T03:33:22.261Z,99775.31
2023-06-08T03:36:01.879Z,99771.13
2023-06-08T03:38:42.013Z,99785.88
2023-06-08T03:41:14.556Z,99781.59
2023-06-08T03:43:47.932Z,99799.41
2023-06-08T03:46:17.704Z,99800.91
2023-06-08T03:48:48.976Z,99809.50
2023-06-08T03:51:19.662Z,99808.88
2023-06-08T03:53:50.018Z,99809.50
2023-06-08T03:56:20.723Z,99802.97
2023-06-08T03:58:53.120Z,99797.09
2023-06-08T04:01:23.745Z,99787.72
2023-06-08T04:03:55.987Z,99795.66
2023-06-08T04:06:35.022Z,99801.25
2023-06-08T04:09:08.190Z,99790.38
2023-06-08T04:11:38.166Z,99782.75
2023-06-08T04:14:10.714Z,99788.47
2023-06-08T04:16:42.638Z,99776.34
2023-06-08T04:19:13.466Z,99785.69
2023-06-08T04:21:45.481Z,99793.78
2023-06-08T04:24:22.769Z,99797.28
2023-06-08T04:26:53.425Z,99792.88
2023-06-08T04:29:26.539Z,99791.47
2023-06-08T04:31:56.322Z,99768.91
2023-06-08T04:34:26.299Z,99788.91
2023-06-08T04:36:56.117Z,99803.50
2023-06-08T04:39:26.329Z,99803.78
2023-06-08T04:41:56.695Z,99805.50
2023-06-08T04:44:35.119Z,99811.97
2023-06-08T04:47:09.142Z,99802.81
2023-06-08T04:49:39.806Z,99802.66
2023-06-08T04:52:14.498Z,99786.84
2023-06-08T04:54:48.208Z,99787.16
2023-06-08T04:57:20.467Z,99787.06
2023-06-08T04:59:53.799Z,99784.91
2023-06-08T05:02:23.630Z,99779.53
2023-06-08T05:04:53.346Z,99787.00
2023-06-08T05:07:23.162Z,99788.31
2023-06-08T05:09:54.146Z,99769.47
2023-06-08T05:12:24.903Z,99768.91
2023-06-08T05:14:57.562Z,99772.44
2023-06-08T05:17:27.506Z,99754.84
2023-06-08T05:19:57.310Z,99751.84
2023-06-08T05:22:27.049Z,99738.91
2023-06-08T05:24:56.729Z,99741.50
2023-06-08T05:27:26.431Z,99721.63
2023-06-08T05:30:01.198Z,99739.31
2023-06-08T05:32:31.463Z,99750.56
2023-06-08T05:35:01.716Z,99763.13
2023-06-08T05:37:31.495Z,99751.94
2023-06-08T05:40:01.316Z,99752.88
2023-06-08T05:42:31.050Z,99754.31
2023-06-08T05:45:03.418Z,99748.53
2023-06-08T05:47:35.272Z,99740.66
2023-06-08T05:50:05.673Z,99742.75
2023-06-08T05:52:35.707Z,99739.41
2023-06-08T05:55:06.729Z,99743.72
2023-06-08T05:57:37.420Z,99747.19
2023-06-08T06:00:13.883Z,99753.03
2023-06-08T06:02:44.308Z,99773.22
2023-06-08T06:05:14.134Z,99763.00
2023-06-08T06:07:43.905Z,99748.47
2023-06-08T06:10:14.451Z,99743.63
2023-06-08T06:12:44.225Z,99749.28
2023-06-08T06:15:17.831Z,99735.00
2023-06-08T06:17:47.671Z,99741.13
2023-06-08T06:20:17.888Z,99744.88
2023-06-08T06:22:47.594Z,99746.72
2023-06-08T06:25:22.821Z,99751.25
2023-06-08T06:27:52.633Z,99748.50
2023-06-08T06:30:25.001Z,99740.78
2023-06-08T06:32:54.760Z,99739.56
2023-06-08T06:35:24.541Z,99729.81
2023-06-08T06:37:54.719Z,99721.75
2023-06-08T06:40:24.876Z,99730.69
2023-06-08T06:42:54.671Z,99736.19
2023-06-08T06:45:39.512Z,99731.03
2023-06-08T06:48:09.353Z,99718.94
2023-06-08T06:50:39.061Z,99720.13
2023-06-08T06:53:08.784Z,99718.13
2023-06-08T06:55:38.484Z,99738.94
2023-06-08T06:58:08.627Z,99753.72
2023-06-08T07:00:41.056Z,99751.03
2023-06-08T07:03:13.115Z,99743.75
2023-06-08T07:05:43.021Z,99752.00
2023-06-08T07:08:13.093Z,99758.53
2023-06-08T07:10:42.795Z,99756.50
2023-06-08T07:13:12.485Z,99767.25
2023-06-08T07:15:44.844Z,99765.00
2023-06-08T07:18:14.740Z,99779.25
2023-06-08T07:20:44.514Z,99771.91
2023-06-08T07:23:29.850Z,99770.63
2023-06-08T07:26:28.595Z,99766.91
2023-06-08T07:28:55.571Z,99757.84
2023-06-08T07:31:28.340Z,99745.16
2023-06-08T07:33:58.826Z,99751.47
2023-06-08T07:36:30.130Z,99751.09
2023-06-08T07:39:00.056Z,99753.78
2023-06-08T07:41:30.189Z,99755.81
2023-06-08T07:44:00.605Z,99756.84
2023-06-08T07:46:33.267Z,99761.53
2023-06-08T07:49:03.001Z,99766.16
2023-06-08T07:51:32.724Z,99776.41
2023-06-08T07:54:02.497Z,99768.00
2023-06-08T07:56:32.215Z,99758.72
2023-06-08T07:59:02.034Z,99762.50
2023-06-08T08:01:34.318Z,99756.44
2023-06-08T08:04:04.089Z,99753.19
2023-06-08T08:06:34.099Z,99776.09
2023-06-08T08:09:04.394Z,99805.03
2023-06-08T08:11:34.085Z,99794.50
2023-06-08T08:14:03.798Z,99781.06
2023-06-08T08:16:36.087Z,99783.47
2023-06-08T08:19:06.671Z,99780.19
2023-06-08T08:21:36.896Z,99782.34
2023-06-08T08:24:07.337Z,99784.28
2023-06-08T08:26:37.357Z,99788.44
2023-06-08T08:29:07.070Z,99782.97
2023-06-08T08:31:39.439Z,99780.88
2023-06-08T08:34:11.753Z,99784.84
2023-06-08T08:36:42.110Z,99781.69
2023-06-08T08:39:12.532Z,99782.34
2023-06-08T08:41:44.809Z,99779.28
2023-06-08T08:44:18.552Z,99783.31
2023-06-08T08:46:53.504Z,99786.22
2023-06-08T08:49:26.024Z,99783.06
2023-06-08T08:51:57.943Z,99769.09
2023-06-08T08:54:32.809Z,99768.84
2023-06-08T08:57:03.144Z,99771.59
2023-06-08T08:59:33.968Z,99766.38
2023-06-08T09:02:06.761Z,99764.97
2023-06-08T09:04:36.520Z,99754.66
2023-06-08T09:07:06.883Z,99755.22
2023-06-08T09:09:36.619Z,99752.81
2023-06-08T09:12:07.718Z,99748.88
2023-06-08T09:14:37.502Z,99753.81
2023-06-08T09:17:09.987Z,99758.84
2023-06-08T09:19:39.786Z,99753.09
2023-06-08T09:22:10.883Z,99744.06
2023-06-08T09:24:52.644Z,99727.34
2023-06-08T09:27:28.401Z,99734.25
2023-06-08T09:29:58.721Z,99737.03
2023-06-08T09:32:38.512Z,99728.16
2023-06-08T09:35:09.949Z,99726.84
2023-06-08T09:37:41.378Z,99723.91
2023-06-08T09:40:24.049Z,99728.47
2023-06-08T09:42:55.949Z,99729.44
2023-06-08T09:45:25.913Z,99729.47
2023-06-08T09:48:15.189Z,99730.94
2023-06-08T09:50:44.879Z,99728.16
2023-06-08T09:53:15.389Z,99730.94
2023-06-08T09:55:45.825Z,99727.84
2023-06-08T09:58:16.020Z,99725.88
2023-06-08T10:00:47.067Z,99729.81
2023-06-08T10:03:26.250Z,99728.94
2023-06-08T10:05:56.390Z,99722.56
2023-06-08T10:08:30.386Z,99722.16
2023-06-08T10:11:01.152Z,99716.41
2023-06-08T10:13:33.767Z,99719.97
2023-06-08T10:16:03.716Z,99711.50
2023-06-08T10:18:37.218Z,99714.31
2023-06-08T10:21:09.722Z,99705.63
2023-06-08T10:23:40.053Z,99706.84
2023-06-08T10:26:10.493Z,99706.03
2023-06-08T10:28:40.297Z,99699.53
2023-06-08T10:31:35.419Z,99704.19
2023-06-08T10:34:11.914Z,99706.06
2023-06-08T10:36:43.692Z,99697.31
2023-06-08T10:39:15.664Z,99692.16
2023-06-08T10:41:47.001Z,99694.28
2023-06-08T10:44:33.429Z,99699.66
2023-06-08T10:47:04.543Z,99685.09
2023-06-08T10:49:39.458Z,99687.69
2023-06-08T10:52:11.752Z,99686.13
2023-06-08T10:54:53.331Z,99685.13
2023-06-08T10:57:38.823Z,99682.69
2023-06-08T11:00:44.200Z,99675.78
2023-06-08T11:03:16.888Z,99671.81
2023-06-08T11:05:54.212Z,99665.41
2023-06-08T11:08:24.823Z,99662.75
2023-06-08T11:10:57.041Z,99659.94
2023-06-08T11:13:27.270Z,99659.50
2023-06-08T11:15:58.113Z,99667.88
2023-06-08T11:18:28.013Z,99658.59
2023-06-08T11:21:01.729Z,99664.34
2023-06-08T11:23:36.358Z,99656.34
2023-06-08T11:26:06.342Z,99662.28
2023-06-08T11:28:36.283Z,99660.97
2023-06-08T11:31:11.559Z,99657.13
2023-06-08T11:33:52.166Z,99651.88
2023-06-08T11:36:24.598Z,99648.94
2023-06-08T11:38:54.497Z,99644.91
2023-06-08T11:41:24.681Z,99643.38
2023-06-08T11:43:54.447Z,99643.22
2023-06-08T11:46:24.397Z,99641.34
2023-06-08T11:48:54.480Z,99640.75
2023-06-08T11:51:27.228Z,99637.97
2023-06-08T11:53:57.757Z,99628.41
2023-06-08T11:56:28.257Z,99628.06
2023-06-08T11:58:57.984Z,99625.47
2023-06-08T12:01:27.779Z,99623.34
2023-06-08T12:03:57.636Z,99620.81
2023-06-08T12:06:31.705Z,99618.31
2023-06-08T12:09:01.463Z,99616.44
2023-06-08T12:11:31.363Z,99609.28
2023-06-08T12:14:01.353Z,99611.00
2023-06-08T12:16:31.159Z,99604.41
2023-06-08T12:19:00.896Z,99607.88
2023-06-08T12:21:33.212Z,99597.34
2023-06-08T12:24:02.931Z,99602.44
2023-06-08T12:26:32.709Z,99593.28
2023-06-08T12:29:07.340Z,99582.69
2023-06-08T12:31:37.365Z,99584.34
2023-06-08T12:34:07.516Z,99579.72
2023-06-08T12:36:40.137Z,99576.97
2023-06-08T12:39:10.050Z,99578.28
2023-06-08T12:41:39.820Z,99580.34
2023-06-08T12:44:09.686Z,99575.34
2023-06-08T12:46:39.421Z,99576.56
2023-06-08T12:49:09.370Z,99569.84
2023-06-08T12:51:41.675Z,99568.56
2023-06-08T12:54:11.488Z,99568.56
2023-06-08T12:56:41.175Z,99567.41
2023-06-08T12:59:10.863Z,99556.75
2023-06-08T13:01:40.688Z,99546.88
2023-06-08T13:04:10.820Z,99542.50
2023-06-08T13:06:43.384Z,99540.34
2023-06-08T13:09:13.211Z,99537.09
2023-06-08T13:11:43.203Z,99531.59
2023-06-08T13:14:12.958Z,99532.56
2023-06-08T13:16:42.786Z,99534.41
2023-06-08T13:19:12.523Z,99529.44
2023-06-08T13:21:44.872Z,99526.56
2023-06-08T13:24:14.673Z,99521.94
2023-06-08T13:26:44.541Z,99512.94
2023-06-08T13:29:14.284Z,99510.28
2023-06-08T13:31:45.946Z,99510.78
2023-06-08T13:34:15.734Z,99521.97
2023-06-08T13:36:48.028Z,99516.00
2023-06-08T13:39:18.001Z,99515.41
2023-06-08T13:41:47.752Z,99504.59
2023-06-08T13:44:17.594Z,99512.13
2023-06-08T13:46:47.446Z,99503.44
2023-06-08T13:49:18.623Z,99511.72
2023-06-08T13:51:51.191Z,99500.09
2023-06-08T13:54:20.936Z,99504.81
2023-06-08T13:56:50.841Z,99494.88
2023-06-08T13:59:20.645Z,99491.34
2023-06-08T14:01:50.637Z,99487.63
2023-06-08T14:04:20.732Z,99490.03
2023-06-08T14:06:53.065Z,99486.72
2023-06-08T14:09:22.761Z,99485.78
2023-06-08T14:11:52.686Z,99488.94
2023-06-08T14:14:22.447Z,99484.03
2023-06-08T14:16:52.189Z,99483.97
2023-06-08T14:19:21.898Z,99480.00
2023-06-08T14:21:54.310Z,99477.31
2023-06-08T14:24:24.042Z,99478.84
2023-06-08T14:26:53.805Z,99473.31
2023-06-08T14:29:23.526Z,99470.75
2023-06-08T14:31:54.924Z,99464.44
2023-06-08T14:34:24.714Z,99462.91
2023-06-08T14:36:57.065Z,99455.88
2023-06-08T14:39:26.885Z,99457.50
2023-06-08T14:41:56.647Z,99447.69
2023-06-08T14:44:26.355Z,99457.03
2023-06-08T14:46:56.112Z,99449.81
2023-06-08T14:49:26.044Z,99447.56
2023-06-08T14:51:58.583Z,99450.09
2023-06-08T14:54:28.624Z,99441.13
2023-06-08T14:56:58.415Z,99431.34
2023-06-08T14:59:28.774Z,99434.81
2023-06-08T15:01:58.908Z,99421.91
2023-06-08T15:04:28.954Z,99425.06
2023-06-08T15:07:01.387Z,99419.91
2023-06-08T15:09:31.111Z,99423.03
2023-06-08T15:12:00.809Z,99414.56
2023-06-08T15:14:32.904Z,99406.72
2023-06-08T15:17:02.960Z,99409.03
2023-06-08T15:19:32.940Z,99404.00
2023-06-08T15:22:05.919Z,99405.34
2023-06-08T15:24:35.636Z,99405.47
2023-06-08T15:27:06.397Z,99404.69
2023-06-08T15:29:36.231Z,99400.91
2023-06-08T15:32:06.498Z,99390.81
2023-06-08T15:34:36.429Z,99405.41
2023-06-08T15:37:09.356Z,99406.66
2023-06-08T15:39:39.060Z,99411.25
2023-06-08T15:42:09.445Z,99401.19
2023-06-08T15:44:39.181Z,99402.47
2023-06-08T15:47:09.498Z,99398.25
2023-06-08T15:49:39.399Z,99397.28
2023-06-08T15:52:12.009Z,99401.91
2023-06-08T15:54:41.720Z,99404.28
2023-06-08T15:57:12.319Z,99399.25
2023-06-08T15:59:42.089Z,99395.88
2023-06-08T16:02:12.152Z,99399.38
2023-06-08T16:04:42.062Z,99392.31
2023-06-08T16:07:14.447Z,99387.13
2023-06-08T16:09:44.229Z,99385.97
2023-06-08T16:12:15.425Z,99391.84
2023-06-08T16:14:45.220Z,99388.28
2023-06-08T16:17:14.958Z,99392.06
2023-06-08T16:19:45.389Z,99389.97
2023-06-08T16:22:18.055Z,99392.31
2023-06-08T16:24:47.878Z,99388.41
2023-06-08T16:27:18.004Z,99391.53
2023-06-08T16:29:48.251Z,99387.28
2023-06-08T16:32:18.705Z,99394.50
2023-06-08T16:34:48.658Z,99390.97
2023-06-08T16:37:21.024Z,99384.19
2023-06-08T16:39:50.721Z,99382.81
2023-06-08T16:42:20.514Z,99382.69
2023-06-08T16:44:50.444Z,99378.63
2023-06-08T16:47:20.536Z,99380.53
2023-06-08T16:49:50.412Z,99383.84
2023-06-08T16:52:23.094Z,99378.44
2023-06-08T16:54:53.711Z,99373.09
2023-06-08T16:57:23.568Z,99374.47
2023-06-08T16:59:53.368Z,99382.44
2023-06-08T17:02:23.206Z,99373.91
2023-06-08T17:04:53.057Z,99376.34
2023-06-08T17:07:25.895Z,99374.72
2023-06-08T17:09:55.752Z,99379.81
2023-06-08T17:12:25.729Z,99388.06
2023-06-08T17:14:55.564Z,99405.56
2023-06-08T17:17:25.764Z,99417.31
2023-06-08T17:19:56.309Z,99415.13
2023-06-08T17:22:28.829Z,99414.94
2023-06-08T17:24:59.022Z,99417.97
2023-06-08T17:27:28.762Z,99415.28
2023-06-08T17:30:00.179Z,99427.41
2023-06-08T17:32:30.802Z,99418.06
2023-06-08T17:35:00.706Z,99425.59
2023-06-08T17:37:33.064Z,99425.41
2023-06-08T17:40:02.944Z,99434.56
2023-06-08T17:42:32.675Z,99445.28
2023-06-08T17:45:02.440Z,99457.88
2023-06-08T17:47:32.248Z,99470.81
2023-06-08T17:50:01.962Z,99476.81
2023-06-08T17:52:34.611Z,99488.88
2023-06-08T17:55:06.135Z,99486.69
2023-06-08T17:57:36.341Z,99495.53
2023-06-08T18:00:06.632Z,99495.72
2023-06-08T18:02:36.632Z,99491.34
2023-06-08T18:05:07.721Z,99478.56
2023-06-08T18:07:40.287Z,99498.25
2023-06-08T18:10:11.137Z,99503.34
2023-06-08T18:12:40.918Z,99502.25
2023-06-08T18:15:11.529Z,99506.47
2023-06-08T18:17:41.403Z,99494.81
2023-06-08T18:20:11.776Z,99487.97
2023-06-08T18:22:44.389Z,99490.44
2023-06-08T18:25:17.123Z,99476.50
2023-06-08T18:27:49.389Z,99483.28
2023-06-08T18:30:19.588Z,99480.94
2023-06-08T18:32:49.367Z,99479.63
2023-06-08T18:35:19.222Z,99480.94
2023-06-08T18:37:54.276Z,99481.34
2023-06-08T18:40:24.379Z,99496.22
2023-06-08T18:42:54.190Z,99498.88
2023-06-08T18:45:23.912Z,99510.78
2023-06-08T18:47:53.895Z,99499.00
2023-06-08T18:50:23.659Z,99493.53
2023-06-08T18:52:56.222Z,99487.75
2023-06-08T18:55:27.677Z,99482.63
2023-06-08T18:57:58.584Z,99486.38
2023-06-08T19:00:28.577Z,99480.19
2023-06-08T19:02:58.762Z,99494.75
2023-06-08T19:05:28.809Z,99499.06
2023-06-08T19:08:01.918Z,99516.13
2023-06-08T19:10:31.722Z,99518.66
2023-06-08T19:13:01.438Z,99526.78
2023-06-08T19:15:31.182Z,99529.13
2023-06-08T19:18:01.716Z,99532.28
2023-06-08T19:20:31.823Z,99529.13
2023-06-08T19:23:04.164Z,99546.69
2023-06-08T19:25:33.905Z,99547.06
2023-06-08T19:28:03.748Z,99554.16
2023-06-08T19:30:33.460Z,99563.41
2023-06-08T19:33:04.323Z,99563.19
2023-06-08T19:35:34.234Z,99566.66
2023-06-08T19:38:06.553Z,99557.59
2023-06-08T19:40:38.287Z,99553.06
2023-06-08T19:43:08.003Z,99553.97
2023-06-08T19:45:37.741Z,99559.63
2023-06-08T19:48:08.573Z,99558.00
2023-06-08T19:50:38.380Z,99564.78
2023-06-08T19:53:11.005Z,99579.66
2023-06-08T19:55:44.862Z,99583.97
2023-06-08T19:58:14.627Z,99600.81
2023-06-08T20:00:44.369Z,99603.84
2023-06-08T20:03:14.121Z,99598.09
2023-06-08T20:05:43.866Z,99593.91
2023-06-08T20:08:17.113Z,99592.91
2023-06-08T20:10:47.491Z,99587.84
2023-06-08T20:13:17.249Z,99578.25
2023-06-08T20:15:46.951Z,99587.72
2023-06-08T20:18:20.316Z,99583.72
2023-06-08T20:20:50.513Z,99603.09
2023-06-08T20:23:23.201Z,99599.41
2023-06-08T20:25:53.346Z,99599.53
2023-06-08T20:28:23.486Z,99600.16
2023-06-08T20:30:53.201Z,99605.97
2023-06-08T20:33:22.924Z,99596.66
2023-06-08T20:35:52.839Z,99593.00
2023-06-08T20:38:28.132Z,99593.19
2023-06-08T20:40:59.348Z,99591.53
2023-06-08T20:43:29.124Z,99597.31
2023-06-08T20:45:58.924Z,99595.75
2023-06-08T20:48:28.628Z,99605.91
2023-06-08T20:50:58.416Z,99601.50
2023-06-08T20:53:31.091Z,99604.59
2023-06-08T20:56:02.215Z,99593.97
2023-06-08T20:58:31.934Z,99588.03
2023-06-08T21:01:01.647Z,99585.16
2023-06-08T21:03:31.459Z,99573.41
2023-06-08T21:06:01.215Z,99594.44
2023-06-08T21:08:33.616Z,99599.81
2023-06-08T21:11:03.352Z,99598.81
2023-06-08T21:13:33.050Z,99610.25
2023-06-08T21:16:02.989Z,99621.19
2023-06-08T21:18:32.739Z,99629.72
2023-06-08T21:21:02.518Z,99636.19
2023-06-08T21:23:34.841Z,99620.66
2023-06-08T21:26:04.621Z,99613.91
2023-06-08T21:28:34.941Z,99616.56
2023-06-08T21:31:04.817Z,99619.13
2023-06-08T21:33:34.720Z,99633.31
2023-06-08T21:36:11.431Z,99627.25
2023-06-08T21:38:45.135Z,99647.91
2023-06-08T21:41:15.094Z,99655.16
2023-06-08T21:43:44.869Z,99641.06
2023-06-08T21:46:14.819Z,99627.84
2023-06-08T21:48:44.698Z,99609.34
2023-06-08T21:51:14.496Z,99607.13
2023-06-08T21:53:47.284Z,99610.44
2023-06-08T21:56:17.040Z,99621.91
2023-06-08T21:58:46.751Z,99624.16
2023-06-08T22:01:17.594Z,99625.88
2023-06-08T22:03:47.455Z,99634.63
2023-06-08T22:06:18.307Z,99620.78
2023-06-08T22:08:50.648Z,99618.53
2023-06-08T22:11:21.715Z,99606.13
2023-06-08T22:13:52.602Z,99621.97
2023-06-08T22:16:23.206Z,99629.19
2023-06-08T22:18:54.144Z,99611.66
2023-06-08T22:21:26.210Z,99636.22
2023-06-08T22:23:58.539Z,99640.03
2023-06-08T22:26:28.637Z,99657.38
2023-06-08T22:29:00.060Z,99659.16
2023-06-08T22:31:29.925Z,99671.56
2023-06-08T22:33:59.643Z,99675.50
2023-06-08T22:36:29.532Z,99677.63
2023-06-08T22:39:01.861Z,99659.53
2023-06-08T22:41:31.602Z,99651.22
2023-06-08T22:44:01.399Z,99649.25
2023-06-08T22:46:31.380Z,99650.38
2023-06-08T22:49:02.506Z,99647.16
2023-06-08T22:51:35.067Z,99644.59
2023-06-08T22:54:07.752Z,99619.53
2023-06-08T22:56:37.514Z,99624.97
2023-06-08T22:59:07.215Z,99617.59
2023-06-08T23:01:37.067Z,99628.91
2023-06-08T23:04:07.091Z,99620.63
2023-06-08T23:06:37.840Z,99607.81
2023-06-08T23:09:10.120Z,99613.88
2023-06-08T23:11:40.760Z,99616.88
2023-06-08T23:14:10.513Z,99606.34
2023-06-08T23:16:40.607Z,99610.19
2023-06-08T23:19:10.434Z,99608.44
2023-06-08T23:21:41.244Z,99604.59
2023-06-08T23:24:13.707Z,99595.78
2023-06-08T23:26:43.503Z,99592.59
2023-06-08T23:29:13.199Z,99575.03
2023-06-08T23:31:43.027Z,99591.06
2023-06-08T23:34:12.779Z,99599.88
2023-06-08T23:36:43.495Z,99602.22
2023-06-08T23:39:15.807Z,99600.81
2023-06-08T23:41:45.545Z,99602.69
2023-06-08T23:44:15.297Z,99606.44
2023-06-08T23:46:45.448Z,99605.09
2023-06-08T23:49:15.198Z,99605.84
2023-06-08T23:51:44.974Z,99602.69
2023-06-08T23:54:17.323Z,99585.06
2023-06-08T23:56:47.028Z,99568.06
2023-06-08T23:59:16.835Z,99579.91
